Time;durP1;ratioP1;P1;durP2;ratioP2;P2;SDS_P1;SDS_P2;PMS_P1;PMS_P2;Temp;Humidity;BMP_temperature;BMP_pressure;BME280_temperature;BME280_humidity;BME280_pressure;Samples;Min_cycle;Max_cycle;Signal;HPM_P1;HPM_P2
2023/02/25 00:00:09;;;;;;;30.00;14.07;;;5.50;99.90;;;;;;4393820;28;657922;-73
2023/02/25 00:02:56;;;;;;;20.52;9.23;;;5.50;99.90;;;;;;4391608;28;658751;-74
2023/02/25 00:05:45;;;;;;;28.00;12.83;;;5.50;99.90;;;;;;4405652;28;657251;-74
2023/02/25 00:08:33;;;;;;;23.80;12.07;;;5.60;99.90;;;;;;4399288;28;659497;-74
2023/02/25 00:11:21;;;;;;;24.13;12.00;;;5.50;99.90;;;;;;4385474;28;657910;-73
2023/02/25 00:14:09;;;;;;;23.70;10.10;;;5.50;99.90;;;;;;4413105;28;658741;-72
2023/02/25 00:16:56;;;;;;;21.33;9.40;;;5.50;99.90;;;;;;4389463;28;657596;-73
2023/02/25 00:19:44;;;;;;;17.13;8.97;;;5.50;99.90;;;;;;4413353;28;656415;-74
2023/02/25 00:22:33;;;;;;;25.88;11.13;;;5.50;99.90;;;;;;4394575;28;656591;-74
2023/02/25 00:25:20;;;;;;;26.60;10.23;;;5.50;99.90;;;;;;4394840;28;658437;-73
2023/02/25 00:28:07;;;;;;;29.40;12.47;;;5.50;99.90;;;;;;4416871;28;657960;-74
2023/02/25 00:30:55;;;;;;;24.27;12.00;;;5.40;99.90;;;;;;4407008;28;658520;-74
2023/02/25 00:33:42;;;;;;;35.37;13.00;;;5.40;99.90;;;;;;4411912;28;658134;-73
2023/02/25 00:36:30;;;;;;;29.07;12.90;;;5.40;99.90;;;;;;4383334;28;657495;-74
2023/02/25 00:39:19;;;;;;;35.10;13.77;;;5.40;99.90;;;;;;4400591;28;657690;-73
2023/02/25 00:42:06;;;;;;;30.60;13.37;;;5.40;99.90;;;;;;4390486;28;657504;-74
2023/02/25 00:44:53;;;;;;;33.03;14.57;;;5.40;99.90;;;;;;4417185;28;658757;-74
2023/02/25 00:47:40;;;;;;;33.97;15.03;;;5.40;99.90;;;;;;4387906;28;657865;-74
2023/02/25 00:50:28;;;;;;;30.90;14.87;;;5.40;99.90;;;;;;4410514;28;658635;-74
2023/02/25 00:53:15;;;;;;;32.87;14.57;;;5.40;99.90;;;;;;4400994;28;657603;-74
2023/02/25 00:56:05;;;;;;;32.90;14.57;;;5.30;99.90;;;;;;4411166;28;658139;-74
2023/02/25 00:58:52;;;;;;;32.43;15.17;;;5.30;99.90;;;;;;4399364;28;658124;-74
2023/02/25 01:01:40;;;;;;;39.63;15.10;;;5.30;99.90;;;;;;4407257;28;657706;-74
2023/02/25 01:04:27;;;;;;;34.00;14.30;;;5.30;99.90;;;;;;4383426;28;658817;-74
2023/02/25 01:07:15;;;;;;;34.85;15.52;;;5.30;99.90;;;;;;4396074;28;657692;-74
2023/02/25 01:10:02;;;;;;;31.57;13.53;;;5.30;99.90;;;;;;4391263;28;658064;-73
2023/02/25 01:12:51;;;;;;;36.00;15.77;;;5.30;99.90;;;;;;4400386;28;657716;-74
2023/02/25 01:15:38;;;;;;;32.57;15.47;;;5.30;99.90;;;;;;4383973;28;658144;-75
2023/02/25 01:18:26;;;;;;;34.73;15.07;;;5.20;99.90;;;;;;4373419;28;657766;-74
2023/02/25 01:21:17;;;;;;;34.30;14.60;;;5.30;99.90;;;;;;4414123;28;657678;-74
2023/02/25 01:24:06;;;;;;;34.37;14.83;;;5.20;99.90;;;;;;4389313;28;658100;-74
2023/02/25 01:26:54;;;;;;;41.13;16.10;;;5.20;99.90;;;;;;4390425;28;658186;-73
2023/02/25 01:29:44;;;;;;;35.73;16.30;;;5.20;99.90;;;;;;4381051;28;657451;-73
2023/02/25 01:32:31;;;;;;;34.13;16.07;;;5.20;99.90;;;;;;4387763;28;657414;-74
2023/02/25 01:35:19;;;;;;;39.50;16.93;;;5.10;99.90;;;;;;4402349;28;657706;-73
2023/02/25 01:38:06;;;;;;;38.77;19.13;;;5.10;99.90;;;;;;4383489;28;657531;-73
2023/02/25 01:40:57;;;;;;;43.23;19.47;;;5.20;99.90;;;;;;4401116;28;658238;-74
2023/02/25 01:44:03;;;;;;;43.50;18.53;;;5.30;99.90;;;;;;4386361;28;658340;-73
2023/02/25 01:46:52;;;;;;;35.40;16.57;;;5.30;99.90;;;;;;4354901;28;657533;-74
2023/02/25 01:49:41;;;;;;;44.67;18.17;;;5.20;99.90;;;;;;4394516;28;657287;-74
2023/02/25 01:52:28;;;;;;;38.60;17.63;;;5.10;99.90;;;;;;4405734;28;658127;-73
2023/02/25 01:55:16;;;;;;;39.80;18.77;;;5.20;99.90;;;;;;4375912;28;657811;-74
2023/02/25 01:58:03;;;;;;;44.50;19.93;;;5.00;99.90;;;;;;4409954;28;658160;-73
2023/02/25 02:00:54;;;;;;;42.97;19.13;;;5.00;99.90;;;;;;4377346;28;657546;-74
2023/02/25 02:03:42;;;;;;;40.60;19.97;;;4.90;99.90;;;;;;4378029;28;657584;-74
2023/02/25 02:06:32;;;;;;;40.17;19.93;;;4.90;99.90;;;;;;4393565;28;657612;-74
2023/02/25 02:09:21;;;;;;;40.43;19.43;;;5.00;99.90;;;;;;4397570;28;657672;-74
2023/02/25 02:12:08;;;;;;;39.27;19.87;;;5.00;99.90;;;;;;4397999;28;657756;-74
2023/02/25 02:14:55;;;;;;;41.70;20.77;;;5.00;99.90;;;;;;4376675;28;657537;-74
2023/02/25 02:17:44;;;;;;;39.23;15.60;;;5.00;99.90;;;;;;4405934;28;658712;-73
2023/02/25 02:20:33;;;;;;;40.73;20.67;;;5.00;99.90;;;;;;4370147;28;657693;-74
2023/02/25 02:23:40;;;;;;;41.57;19.40;;;4.90;99.90;;;;;;4382423;28;657908;-74
2023/02/25 02:27:01;;;;;;;43.73;21.30;;;5.00;99.90;;;;;;4359718;28;657742;-74
2023/02/25 02:30:03;;;;;;;42.53;18.50;;;4.90;99.90;;;;;;4384001;28;657848;-74
2023/02/25 02:32:53;;;;;;;44.43;20.60;;;4.90;99.90;;;;;;4374186;28;658516;-74
2023/02/25 02:35:44;;;;;;;53.40;25.33;;;4.90;99.90;;;;;;4377989;28;657821;-74
2023/02/25 02:38:33;;;;;;;47.87;21.57;;;4.80;99.90;;;;;;4387292;28;658070;-74
2023/02/25 02:41:24;;;;;;;61.20;26.33;;;4.80;99.90;;;;;;4386952;28;657749;-74
2023/02/25 02:44:13;;;;;;;72.13;28.00;;;4.90;99.90;;;;;;4396672;28;657768;-74
2023/02/25 02:47:01;;;;;;;121.63;40.20;;;4.80;99.90;;;;;;4396980;28;657660;-74
2023/02/25 02:49:51;;;;;;;104.97;36.17;;;4.80;99.90;;;;;;4402717;28;659619;-74
2023/02/25 02:52:39;;;;;;;100.97;38.30;;;4.60;99.90;;;;;;4381111;28;659390;-75
2023/02/25 02:55:28;;;;;;;94.63;34.10;;;4.40;99.90;;;;;;4380463;28;658816;-75
2023/02/25 02:58:17;;;;;;;94.83;33.63;;;4.40;99.90;;;;;;4404367;28;657501;-74
2023/02/25 03:01:07;;;;;;;66.30;26.07;;;4.20;99.90;;;;;;4400831;28;657109;-74
2023/02/25 03:03:58;;;;;;;85.47;30.80;;;4.20;99.90;;;;;;4387382;28;658061;-75
2023/02/25 03:06:49;;;;;;;77.10;29.60;;;4.10;99.90;;;;;;4368504;28;657496;-75
2023/02/25 03:09:38;;;;;;;74.47;28.30;;;4.10;99.90;;;;;;4382124;28;657820;-74
2023/02/25 03:12:25;;;;;;;68.15;26.60;;;4.10;99.90;;;;;;4393703;28;658340;-74
2023/02/25 03:15:13;;;;;;;73.27;26.70;;;4.00;99.90;;;;;;4408055;28;657879;-74
2023/02/25 03:18:03;;;;;;;62.63;23.60;;;3.80;99.90;;;;;;4389634;28;658091;-74
2023/02/25 03:20:51;;;;;;;59.00;23.13;;;3.80;99.90;;;;;;4384841;28;657901;-74
2023/02/25 03:23:40;;;;;;;50.97;20.53;;;3.70;99.90;;;;;;4400390;28;658244;-74
2023/02/25 03:26:28;;;;;;;47.83;20.27;;;3.60;99.90;;;;;;4389801;28;658129;-74
2023/02/25 03:29:17;;;;;;;46.30;18.67;;;3.50;99.90;;;;;;4392538;28;657698;-74
2023/02/25 03:32:05;;;;;;;41.70;17.33;;;3.50;99.90;;;;;;4416089;28;657605;-74
2023/02/25 03:34:56;;;;;;;46.53;18.67;;;3.50;99.90;;;;;;4379759;28;658936;-75
2023/02/25 03:37:44;;;;;;;43.67;18.90;;;3.40;99.90;;;;;;4384023;28;657976;-75
2023/02/25 03:40:32;;;;;;;40.00;17.27;;;3.40;99.90;;;;;;4384856;28;657753;-73
2023/02/25 03:43:22;;;;;;;39.37;16.70;;;3.30;99.90;;;;;;4393119;28;658073;-75
2023/02/25 03:46:09;;;;;;;41.40;16.73;;;3.20;99.90;;;;;;4396315;28;657642;-73
2023/02/25 03:48:57;;;;;;;40.43;17.70;;;3.00;99.90;;;;;;4372527;28;657968;-73
2023/02/25 03:51:44;;;;;;;37.27;15.80;;;3.00;99.90;;;;;;4402155;28;657485;-74
2023/02/25 03:54:31;;;;;;;40.33;15.47;;;3.00;99.90;;;;;;4384802;28;657972;-75
2023/02/25 03:57:23;;;;;;;33.10;15.17;;;2.90;99.90;;;;;;4405690;28;658954;-74
2023/02/25 04:00:18;;;;;;;36.70;15.47;;;2.80;99.90;;;;;;4375278;28;658066;-74
2023/02/25 04:03:05;;;;;;;31.97;13.60;;;2.70;99.90;;;;;;4391930;28;657637;-74
2023/02/25 04:05:52;;;;;;;30.87;15.43;;;2.60;99.90;;;;;;4404166;28;657477;-73
2023/02/25 04:08:40;;;;;;;32.90;14.53;;;2.40;99.90;;;;;;4386136;28;658513;-73
2023/02/25 04:11:27;;;;;;;34.43;14.33;;;2.40;99.90;;;;;;4403458;28;658680;-74
2023/02/25 04:14:17;;;;;;;33.20;15.33;;;2.30;99.90;;;;;;4389542;28;657936;-74
2023/02/25 04:17:05;;;;;;;28.70;13.37;;;2.40;99.90;;;;;;4398535;28;657460;-73
2023/02/25 04:19:52;;;;;;;29.10;12.17;;;2.40;99.90;;;;;;4374346;28;658056;-73
2023/02/25 04:22:39;;;;;;;25.20;11.67;;;2.30;99.90;;;;;;4409231;28;658239;-74
2023/02/25 04:25:26;;;;;;;21.07;10.17;;;2.20;99.90;;;;;;4390321;28;657945;-74
2023/02/25 04:28:13;;;;;;;16.80;8.53;;;2.10;99.90;;;;;;4406223;28;657853;-75
2023/02/25 04:31:02;;;;;;;23.83;10.97;;;2.00;99.90;;;;;;4380835;28;656772;-74
2023/02/25 04:33:49;;;;;;;19.80;9.70;;;2.00;99.90;;;;;;4402658;28;657869;-74
2023/02/25 04:36:37;;;;;;;19.30;7.10;;;1.80;99.90;;;;;;4388885;28;656924;-74
2023/02/25 04:39:24;;;;;;;18.07;8.60;;;1.70;99.90;;;;;;4406734;28;656688;-75
2023/02/25 04:42:11;;;;;;;18.77;8.33;;;1.60;99.90;;;;;;4373052;28;656923;-74
2023/02/25 04:44:58;;;;;;;17.57;6.37;;;1.60;99.90;;;;;;4399724;28;656975;-74
2023/02/25 04:47:47;;;;;;;10.30;4.60;;;1.60;99.90;;;;;;4390016;28;656645;-74
2023/02/25 04:50:34;;;;;;;10.60;4.73;;;1.50;99.90;;;;;;4418729;28;655939;-73
2023/02/25 04:53:21;;;;;;;14.25;5.65;;;1.50;99.90;;;;;;4396113;28;656525;-73
2023/02/25 04:56:09;;;;;;;13.33;5.37;;;1.60;99.90;;;;;;4407692;28;657631;-74
2023/02/25 04:58:56;;;;;;;12.03;5.27;;;1.60;99.90;;;;;;4393183;28;656893;-73
2023/02/25 05:01:44;;;;;;;15.97;5.70;;;1.70;99.90;;;;;;4413891;28;656313;-74
2023/02/25 05:04:33;;;;;;;13.77;5.87;;;1.60;99.90;;;;;;4396327;28;656397;-74
2023/02/25 05:07:20;;;;;;;13.82;6.75;;;1.60;99.90;;;;;;4377754;28;656786;-74
2023/02/25 05:10:08;;;;;;;13.93;6.57;;;1.60;99.90;;;;;;4413269;28;657150;-74
2023/02/25 05:12:56;;;;;;;18.13;7.80;;;1.50;99.90;;;;;;4368094;28;656909;-74
2023/02/25 05:15:43;;;;;;;18.20;8.17;;;1.50;99.90;;;;;;4393341;28;657328;-74
2023/02/25 05:18:30;;;;;;;18.50;8.93;;;1.50;99.90;;;;;;4395034;28;656603;-74
2023/02/25 05:21:19;;;;;;;19.83;9.00;;;1.50;99.90;;;;;;4417295;28;656976;-74
2023/02/25 05:24:07;;;;;;;20.93;9.57;;;1.50;99.90;;;;;;4380063;28;656964;-74
2023/02/25 05:26:54;;;;;;;23.60;9.57;;;1.50;99.90;;;;;;4408499;28;656472;-75
2023/02/25 05:29:42;;;;;;;21.60;9.70;;;1.40;99.90;;;;;;4390106;28;656678;-75
2023/02/25 05:32:30;;;;;;;17.60;9.10;;;1.50;99.90;;;;;;4399384;28;656477;-75
2023/02/25 05:35:17;;;;;;;25.20;10.30;;;1.40;99.90;;;;;;4391418;28;656838;-75
2023/02/25 05:38:07;;;;;;;23.60;10.03;;;1.40;99.90;;;;;;4371672;28;657407;-75
2023/02/25 05:40:54;;;;;;;21.70;9.63;;;1.30;99.90;;;;;;4420425;28;658040;-75
2023/02/25 05:43:44;;;;;;;19.80;10.63;;;1.30;99.90;;;;;;4381956;28;657210;-75
2023/02/25 05:46:31;;;;;;;21.33;10.13;;;1.40;99.90;;;;;;4393101;28;657456;-75
2023/02/25 05:49:18;;;;;;;20.37;10.37;;;1.40;99.90;;;;;;4414670;28;658479;-75
2023/02/25 05:52:05;;;;;;;23.93;11.50;;;1.50;99.90;;;;;;4395051;28;657439;-75
2023/02/25 05:54:54;;;;;;;27.53;12.83;;;1.50;99.90;;;;;;4402172;28;657911;-75
2023/02/25 05:57:41;;;;;;;27.63;12.40;;;1.50;99.90;;;;;;4376356;28;657693;-75
2023/02/25 06:00:28;;;;;;;26.53;12.30;;;1.50;99.90;;;;;;4413227;28;658949;-76
2023/02/25 06:03:16;;;;;;;26.30;11.70;;;1.60;99.90;;;;;;4380132;28;657765;-75
2023/02/25 06:06:03;;;;;;;26.47;12.27;;;1.60;99.90;;;;;;4415484;28;657884;-75
2023/02/25 06:08:51;;;;;;;26.80;12.90;;;1.60;99.90;;;;;;4390881;28;657591;-75
2023/02/25 06:11:39;;;;;;;28.03;13.10;;;1.70;99.90;;;;;;4397997;28;657792;-75
2023/02/25 06:14:27;;;;;;;31.27;14.47;;;1.60;99.90;;;;;;4398210;28;657821;-75
2023/02/25 06:17:14;;;;;;;30.87;14.30;;;1.70;99.90;;;;;;4393309;28;657865;-75
2023/02/25 06:20:02;;;;;;;31.73;15.10;;;1.80;99.90;;;;;;4392107;28;657414;-76
2023/02/25 06:22:49;;;;;;;29.43;14.77;;;1.80;99.90;;;;;;4397665;28;657768;-75
2023/02/25 06:25:36;;;;;;;35.60;16.10;;;1.90;99.90;;;;;;4397037;28;657891;-75
2023/02/25 06:28:25;;;;;;;32.43;16.03;;;2.00;99.90;;;;;;4414799;28;658474;-75
2023/02/25 06:31:14;;;;;;;37.67;17.10;;;2.00;99.90;;;;;;4376310;28;658893;-76
2023/02/25 06:34:01;;;;;;;40.80;18.10;;;2.10;99.90;;;;;;4387489;28;657868;-75
2023/02/25 06:36:49;;;;;;;41.03;18.47;;;2.20;99.90;;;;;;4406658;28;658279;-76
2023/02/25 06:39:36;;;;;;;38.97;18.00;;;2.30;99.90;;;;;;4383865;28;657349;-75
2023/02/25 06:42:23;;;;;;;42.20;20.87;;;2.30;99.90;;;;;;4396335;28;657725;-76
2023/02/25 06:45:12;;;;;;;53.07;25.13;;;2.30;99.90;;;;;;4391111;28;657608;-75
2023/02/25 06:47:59;;;;;;;55.57;28.37;;;2.40;99.90;;;;;;4414229;28;657372;-75
2023/02/25 06:50:46;;;;;;;61.80;30.03;;;2.60;99.90;;;;;;4379869;28;658149;-75
2023/02/25 06:53:33;;;;;;;58.07;29.03;;;2.80;99.90;;;;;;4420859;28;658221;-75
2023/02/25 06:56:21;;;;;;;57.80;29.90;;;3.00;99.90;;;;;;4374062;28;657674;-75
2023/02/25 06:59:08;;;;;;;54.07;26.27;;;3.00;99.90;;;;;;4410744;28;657557;-75
2023/02/25 07:01:57;;;;;;;58.03;27.90;;;2.90;99.90;;;;;;4388589;28;657302;-75
2023/02/25 07:04:44;;;;;;;59.23;28.77;;;2.90;99.90;;;;;;4407620;28;657428;-75
2023/02/25 07:07:31;;;;;;;63.60;28.57;;;2.70;99.90;;;;;;4392769;28;658130;-75
2023/02/25 07:10:19;;;;;;;51.03;23.97;;;2.70;99.90;;;;;;4406225;28;657953;-75
2023/02/25 07:13:06;;;;;;;47.83;24.33;;;2.80;99.90;;;;;;4401274;28;657680;-75
2023/02/25 07:15:53;;;;;;;48.80;23.73;;;2.70;99.90;;;;;;4396157;28;658363;-75
2023/02/25 07:18:42;;;;;;;47.97;19.80;;;2.80;99.90;;;;;;4386333;28;657794;-74
2023/02/25 07:21:29;;;;;;;35.90;17.40;;;2.70;99.90;;;;;;4402484;28;657899;-74
2023/02/25 07:24:17;;;;;;;40.17;19.67;;;2.80;99.90;;;;;;4402228;28;657549;-74
2023/02/25 07:27:04;;;;;;;43.58;19.88;;;2.70;99.90;;;;;;4416567;28;657442;-74
2023/02/25 07:29:51;;;;;;;33.37;16.53;;;2.70;99.90;;;;;;4398644;28;657706;-75
2023/02/25 07:32:38;;;;;;;38.23;18.40;;;2.70;99.90;;;;;;4394056;28;658623;-74
2023/02/25 07:35:27;;;;;;;33.67;17.10;;;2.70;99.90;;;;;;4370681;28;658063;-75
2023/02/25 07:38:14;;;;;;;31.27;15.18;;;2.80;81.20;;;;;;4404622;28;658271;-74
2023/02/25 07:41:04;;;;;;;29.67;16.13;;;2.80;24.80;;;;;;4378067;28;658202;-73
2023/02/25 07:43:52;;;;;;;28.37;14.70;;;2.80;1.00;;;;;;4393972;28;658065;-75
2023/02/25 07:46:40;;;;;;;29.37;13.73;;;2.80;1.00;;;;;;4427668;28;656116;-75
2023/02/25 07:49:27;;;;;;;26.83;14.20;;;2.80;1.00;;;;;;4381328;28;658212;-75
2023/02/25 07:52:16;;;;;;;25.30;13.48;;;2.80;1.00;;;;;;4399691;28;656367;-75
2023/02/25 07:55:03;;;;;;;13.43;7.67;;;2.80;1.00;;;;;;4388433;28;657006;-75
2023/02/25 07:57:50;;;;;;;21.70;11.33;;;2.80;1.00;;;;;;4384702;28;655880;-74
2023/02/25 08:00:38;;;;;;;23.00;11.70;;;2.90;1.00;;;;;;4387577;28;656566;-73
2023/02/25 08:03:25;;;;;;;15.13;8.82;;;2.90;1.00;;;;;;4388308;28;656829;-75
2023/02/25 08:06:13;;;;;;;24.60;12.70;;;2.90;1.00;;;;;;4412546;28;655983;-75
2023/02/25 08:09:02;;;;;;;25.00;11.37;;;2.90;1.00;;;;;;4397485;28;656444;-74
2023/02/25 08:11:51;;;;;;;18.20;9.90;;;2.70;1.00;;;;;;4395680;28;656967;-74
2023/02/25 08:14:39;;;;;;;19.60;10.33;;;2.50;14.20;;;;;;4410271;28;655710;-74
2023/02/25 08:17:30;;;;;;;11.90;6.40;;;2.20;18.90;;;;;;4385583;28;657537;-74
2023/02/25 08:20:17;;;;;;;9.07;4.40;;;1.80;7.80;;;;;;4383174;28;657240;-74
2023/02/25 08:23:05;;;;;;;4.27;2.70;;;1.50;16.20;;;;;;4430854;28;653920;-74
2023/02/25 08:25:57;;;;;;;5.77;2.60;;;1.20;72.90;;;;;;4393719;28;656191;-74
2023/02/25 08:28:44;;;;;;;5.57;3.10;;;1.20;99.90;;;;;;4374696;28;655793;-75
2023/02/25 08:31:32;;;;;;;5.57;3.03;;;1.30;99.90;;;;;;4391465;28;655395;-75
2023/02/25 08:34:19;;;;;;;6.07;3.47;;;1.50;99.90;;;;;;4413247;28;655702;-75
2023/02/25 08:37:09;;;;;;;8.90;3.80;;;1.80;99.90;;;;;;4398400;28;655929;-75
2023/02/25 08:39:57;;;;;;;9.00;5.30;;;1.80;99.90;;;;;;4392849;28;655897;-75
2023/02/25 08:42:45;;;;;;;13.83;6.50;;;2.20;99.90;;;;;;4399050;28;655778;-75
2023/02/25 08:45:33;;;;;;;16.00;7.30;;;2.60;99.90;;;;;;4397139;28;657160;-75
2023/02/25 08:48:21;;;;;;;14.97;7.47;;;2.60;84.10;;;;;;4407663;28;656336;-73
2023/02/25 08:51:09;;;;;;;18.40;9.47;;;2.50;35.50;;;;;;4415461;28;657106;-74
2023/02/25 08:53:56;;;;;;;17.77;8.88;;;2.50;52.80;;;;;;4377294;28;656816;-74
2023/02/25 08:56:44;;;;;;;17.70;9.30;;;2.60;90.10;;;;;;4403196;28;657380;-75
2023/02/25 08:59:34;;;;;;;18.80;8.80;;;2.70;59.70;;;;;;4374974;28;656540;-75
2023/02/25 09:02:23;;;;;;;20.27;9.67;;;2.80;1.00;;;;;;4384724;28;656547;-76
2023/02/25 09:05:10;;;;;;;15.30;8.83;;;2.90;1.00;;;;;;4403266;28;655874;-74
2023/02/25 09:07:57;;;;;;;14.03;7.90;;;2.90;1.00;;;;;;4417862;28;656000;-76
2023/02/25 09:10:45;;;;;;;13.37;7.83;;;3.00;1.00;;;;;;4399443;28;655336;-75
2023/02/25 09:13:32;;;;;;;13.10;6.60;;;3.00;1.00;;;;;;4415829;28;655047;-75
2023/02/25 09:16:22;;;;;;;11.20;5.87;;;3.20;1.00;;;;;;4420608;28;655396;-74
2023/02/25 09:19:11;;;;;;;10.53;5.50;;;3.20;1.00;;;;;;4417602;28;655748;-75
2023/02/25 09:21:58;;;;;;;10.33;5.03;;;3.40;1.00;;;;;;4392013;28;656350;-75
2023/02/25 09:24:45;;;;;;;11.63;6.15;;;3.60;1.00;;;;;;4375946;28;655505;-75
2023/02/25 09:27:32;;;;;;;7.30;4.27;;;3.90;1.00;;;;;;4421004;28;656601;-74
2023/02/25 09:30:20;;;;;;;12.90;4.37;;;3.80;99.90;;;;;;4393003;28;654474;-74
2023/02/25 09:33:09;;;;;;;9.13;3.53;;;3.90;99.90;;;;;;4394298;28;656792;-73
2023/02/25 09:35:57;;;;;;;6.07;3.30;;;3.80;99.90;;;;;;4397410;28;655876;-76
2023/02/25 09:38:45;;;;;;;7.53;3.03;;;3.80;99.90;;;;;;4412316;28;655289;-75
2023/02/25 09:41:34;;;;;;;8.38;3.10;;;3.90;1.00;;;;;;4398921;28;656531;-74
2023/02/25 09:44:24;;;;;;;7.23;3.57;;;3.60;99.90;;;;;;4399201;28;655448;-74
2023/02/25 09:47:14;;;;;;;6.03;3.23;;;3.50;99.90;;;;;;4399887;28;655714;-73
2023/02/25 09:50:05;;;;;;;5.90;3.33;;;3.60;1.00;;;;;;4394993;28;655661;-73
2023/02/25 09:52:57;;;;;;;4.97;2.13;;;3.80;99.90;;;;;;4384930;28;655736;-73
2023/02/25 09:55:45;;;;;;;2.97;1.80;;;3.90;99.90;;;;;;4382250;28;655500;-74
2023/02/25 09:58:35;;;;;;;2.70;1.70;;;3.80;99.90;;;;;;4391616;28;655257;-73
2023/02/25 10:01:28;;;;;;;4.23;2.10;;;3.80;1.00;;;;;;4394582;28;656708;-73
2023/02/25 10:04:17;;;;;;;2.70;1.67;;;3.70;1.00;;;;;;4390711;28;654701;-74
2023/02/25 10:07:08;;;;;;;4.47;2.30;;;3.80;1.00;;;;;;4405265;28;654088;-74
2023/02/25 10:09:58;;;;;;;4.80;2.53;;;3.80;6.80;;;;;;4357735;28;655292;-75
2023/02/25 10:12:49;;;;;;;5.97;1.77;;;3.90;1.00;;;;;;4383930;28;654833;-74
2023/02/25 10:15:43;;;;;;;4.23;1.70;;;3.90;1.00;;;;;;4391329;28;654530;-74
2023/02/25 10:18:38;;;;;;;2.47;1.23;;;3.90;1.00;;;;;;4391908;28;654308;-73
2023/02/25 10:21:33;;;;;;;4.40;1.50;;;3.80;1.00;;;;;;4360751;28;655134;-74
2023/02/25 10:24:29;;;;;;;9.93;1.80;;;3.70;99.90;;;;;;4365548;28;654791;-74
2023/02/25 10:27:20;;;;;;;4.30;1.13;;;4.00;1.00;;;;;;4380921;28;655422;-72
2023/02/25 10:30:12;;;;;;;1.77;0.87;;;4.00;1.00;;;;;;4378997;28;654928;-73
2023/02/25 10:32:59;;;;;;;2.60;1.33;;;4.10;1.00;;;;;;4379119;28;655129;-74
2023/02/25 10:35:46;;;;;;;5.60;1.93;;;4.20;1.00;;;;;;4374675;28;654493;-73
2023/02/25 10:38:34;;;;;;;5.33;1.80;;;4.30;1.00;;;;;;4412631;28;655069;-74
2023/02/25 10:41:25;;;;;;;5.83;1.50;;;4.20;1.00;;;;;;4401865;28;653998;-74
2023/02/25 10:44:12;;;;;;;2.37;1.20;;;4.30;1.00;;;;;;4391985;28;654562;-76
2023/02/25 10:47:02;;;;;;;1.60;0.90;;;4.20;1.00;;;;;;4395546;28;654160;-72
2023/02/25 10:50:10;;;;;;;3.60;1.30;;;3.60;1.00;;;;;;4400388;28;654539;-72
2023/02/25 10:53:01;;;;;;;3.73;1.50;;;2.80;58.80;;;;;;4387674;28;654321;-72
2023/02/25 10:55:51;;;;;;;4.60;1.90;;;2.50;1.00;;;;;;4390524;28;656093;-74
2023/02/25 10:58:41;;;;;;;5.82;2.08;;;2.40;1.00;;;;;;4385422;28;655456;-75
2023/02/25 11:01:35;;;;;;;4.40;2.40;;;2.20;99.90;;;;;;4381992;28;654844;-74
2023/02/25 11:04:24;;;;;;;4.97;2.20;;;1.90;1.00;;;;;;4394214;28;655579;-73
2023/02/25 11:07:31;;;;;;;4.67;2.20;;;1.80;87.70;;;;;;4394839;28;654401;-74
2023/02/25 11:10:20;;;;;;;5.03;1.80;;;1.80;99.90;;;;;;4391949;28;655253;-75
2023/02/25 11:13:14;;;;;;;5.87;2.80;;;1.60;99.90;;;;;;4395437;28;655843;-74
2023/02/25 11:16:05;;;;;;;9.00;2.95;;;1.60;99.90;;;;;;4364169;28;655744;-73
2023/02/25 11:18:53;;;;;;;6.20;2.80;;;1.60;99.90;;;;;;4374195;28;655887;-74
2023/02/25 11:21:40;;;;;;;7.27;3.27;;;1.70;99.90;;;;;;4395833;28;656920;-73
2023/02/25 11:24:30;;;;;;;6.27;3.53;;;1.90;99.90;;;;;;4407396;28;655802;-73
2023/02/25 11:27:25;;;;;;;5.20;2.83;;;2.20;99.90;;;;;;4375958;28;656002;-73
2023/02/25 11:30:17;;;;;;;7.37;3.07;;;2.60;99.90;;;;;;4386950;28;656648;-73
2023/02/25 11:33:09;;;;;;;5.05;3.03;;;3.00;82.90;;;;;;4372176;28;656048;-74
2023/02/25 11:35:56;;;;;;;6.53;2.30;;;2.70;25.70;;;;;;4391085;28;656021;-74
2023/02/25 11:38:43;;;;;;;6.33;3.07;;;2.80;75.50;;;;;;4398984;28;656202;-71
2023/02/25 11:41:31;;;;;;;2.97;2.07;;;2.80;5.50;;;;;;4377359;28;655357;-73
2023/02/25 11:44:29;;;;;;;7.20;2.72;;;3.10;1.00;;;;;;4399844;28;654932;-73
2023/02/25 11:47:21;;;;;;;5.45;2.78;;;3.50;1.00;;;;;;4371225;28;654875;-70
2023/02/25 11:50:15;;;;;;;4.83;2.53;;;3.60;1.00;;;;;;4397401;28;654717;-70
2023/02/25 11:53:06;;;;;;;5.60;2.97;;;3.60;1.00;;;;;;4352403;28;654357;-73
2023/02/25 11:56:00;;;;;;;6.47;3.50;;;3.50;1.00;;;;;;4371809;28;654360;-73
2023/02/25 11:58:51;;;;;;;4.77;3.03;;;4.10;1.00;;;;;;4370738;28;654891;-73
2023/02/25 12:01:47;;;;;;;5.33;3.17;;;4.50;1.00;;;;;;4369285;28;655185;-73
2023/02/25 12:04:44;;;;;;;9.30;3.90;;;4.20;99.90;;;;;;4361215;28;655097;-73
2023/02/25 12:07:46;;;;;;;6.37;3.30;;;4.50;99.90;;;;;;4363097;28;655592;-73
2023/02/25 12:10:47;;;;;;;4.30;2.27;;;4.50;1.00;;;;;;4359209;28;655783;-71
2023/02/25 12:14:03;;;;;;;6.83;3.23;;;4.50;1.00;;;;;;4360560;28;654991;-74
2023/02/25 12:17:29;;;;;;;5.25;3.03;;;4.20;1.00;;;;;;4360380;28;654448;-74
2023/02/25 12:20:50;;;;;;;7.37;3.03;;;4.90;1.00;;;;;;4359940;28;654629;-73
2023/02/25 12:24:10;;;;;;;5.67;2.97;;;4.50;77.70;;;;;;4365587;28;655703;-73
2023/02/25 12:27:35;;;;;;;5.87;2.93;;;4.40;1.00;;;;;;4331565;28;655703;-73
2023/02/25 12:31:03;;;;;;;6.97;3.30;;;4.00;1.00;;;;;;4311300;28;654476;-73
2023/02/25 12:34:17;;;;;;;6.93;3.80;;;4.10;85.30;;;;;;4292950;28;654971;-73
2023/02/25 12:37:14;;;;;;;7.13;4.30;;;4.50;1.00;;;;;;4295403;28;655307;-73
2023/02/25 12:40:24;;;;;;;7.07;4.10;;;4.90;99.90;;;;;;4346741;28;655159;-72
2023/02/25 12:43:19;;;;;;;7.37;3.27;;;4.70;1.00;;;;;;4353679;28;655461;-75
2023/02/25 12:46:14;;;;;;;7.27;4.17;;;4.00;1.00;;;;;;4360152;28;654912;-73
2023/02/25 12:49:45;;;;;;;5.17;2.60;;;3.70;1.00;;;;;;4362995;28;654708;-72
2023/02/25 12:52:38;;;;;;;5.93;2.73;;;3.40;1.00;;;;;;4290285;28;654957;-72
2023/02/25 12:55:51;;;;;;;4.67;1.80;;;3.40;99.90;;;;;;4280960;28;654760;-70
2023/02/25 12:58:46;;;;;;;5.93;2.67;;;3.60;99.90;;;;;;4345038;28;655763;-70
2023/02/25 13:01:54;;;;;;;4.03;2.40;;;3.70;99.90;;;;;;4355799;28;655801;-71
2023/02/25 13:05:06;;;;;;;4.80;2.60;;;4.30;99.90;;;;;;4332946;28;656143;-72
2023/02/25 13:08:25;;;;;;;4.03;2.30;;;4.50;1.00;;;;;;4376061;28;655628;-70
2023/02/25 13:11:20;;;;;;;4.80;2.70;;;3.60;18.30;;;;;;4339651;28;654821;-71
2023/02/25 13:14:36;;;;;;;4.40;1.97;;;3.20;99.90;;;;;;4354552;28;655836;-72
2023/02/25 13:17:42;;;;;;;3.60;1.90;;;2.80;1.00;;;;;;4369262;28;655707;-71
2023/02/25 13:20:56;;;;;;;4.13;2.20;;;2.90;1.00;;;;;;4372147;28;655558;-71
2023/02/25 13:23:48;;;;;;;5.80;2.30;;;2.70;1.00;;;;;;4372096;28;654625;-71
2023/02/25 13:27:05;;;;;;;3.90;2.57;;;2.70;99.90;;;;;;4351749;28;654571;-72
2023/02/25 13:30:12;;;;;;;4.80;2.83;;;2.70;1.00;;;;;;4369606;28;655399;-72
2023/02/25 13:33:47;;;;;;;8.00;3.60;;;2.60;1.00;;;;;;4378704;28;654972;-73
2023/02/25 13:36:55;;;;;;;4.67;2.70;;;2.50;99.90;;;;;;4316265;28;655037;-72
2023/02/25 13:40:04;;;;;;;2.67;1.57;;;2.10;99.90;;;;;;4359707;28;655437;-71
2023/02/25 13:43:03;;;;;;;3.33;1.80;;;1.20;99.90;;;;;;4376677;28;655324;-70
2023/02/25 13:46:06;;;;;;;2.90;1.83;;;0.90;99.90;;;;;;4359007;28;656740;-71
2023/02/25 13:49:21;;;;;;;2.27;1.63;;;0.80;99.90;;;;;;4372985;28;655798;-71
2023/02/25 13:52:21;;;;;;;2.27;1.27;;;0.60;99.90;;;;;;4365307;28;656236;-71
2023/02/25 13:55:24;;;;;;;3.00;1.27;;;0.80;99.90;;;;;;4376165;28;656101;-70
2023/02/25 13:58:40;;;;;;;3.83;2.20;;;0.60;99.90;;;;;;4377093;28;655901;-74
2023/02/25 14:01:40;;;;;;;2.73;1.70;;;0.50;99.90;;;;;;4349795;28;655943;-73
2023/02/25 14:04:39;;;;;;;4.43;2.00;;;0.70;99.90;;;;;;4350927;28;655614;-74
2023/02/25 14:07:33;;;;;;;2.77;1.87;;;1.00;99.90;;;;;;4345309;28;655824;-73
2023/02/25 14:10:35;;;;;;;5.43;2.20;;;1.50;99.90;;;;;;4354704;28;655893;-72
2023/02/25 14:13:54;;;;;;;5.80;3.03;;;1.50;99.90;;;;;;4350183;28;656058;-72
2023/02/25 14:17:08;;;;;;;2.50;1.40;;;1.80;99.90;;;;;;4367124;28;655453;-69
2023/02/25 14:20:05;;;;;;;5.53;2.50;;;2.30;17.80;;;;;;4340831;28;656635;-69
2023/02/25 14:22:53;;;;;;;5.05;2.90;;;3.00;1.00;;;;;;4371130;28;655785;-70
2023/02/25 14:26:11;;;;;;;8.70;3.77;;;2.70;1.00;;;;;;4363453;28;654620;-70
2023/02/25 14:29:15;;;;;;;3.87;2.00;;;2.20;1.00;;;;;;4362669;28;655190;-70
2023/02/25 14:32:20;;;;;;;7.00;2.97;;;2.00;1.00;;;;;;4334904;28;654672;-69
2023/02/25 14:35:34;;;;;;;5.87;3.23;;;1.80;1.00;;;;;;4344651;28;655722;-70
2023/02/25 14:38:23;;;;;;;5.80;2.87;;;1.70;1.00;;;;;;4341845;28;655570;-70
2023/02/25 14:41:19;;;;;;;6.10;2.78;;;1.60;1.00;;;;;;4362165;28;654978;-69
2023/02/25 14:44:10;;;;;;;6.17;3.10;;;2.10;1.00;;;;;;4355369;28;654671;-70